Time;durP1;ratioP1;P1;durP2;ratioP2;P2;SDS_P1;SDS_P2;PMS_P1;PMS_P2;Temp;Humidity;BMP_temperature;BMP_pressure;BME280_temperature;BME280_humidity;BME280_pressure;Samples;Min_cycle;Max_cycle;Signal;HPM_P1;HPM_P2
2021/05/24 00:01:54;;;;;;;5.78;2.10;;;;;;;7.82;100.00;100679.16;5196799;28;20033;-81
2021/05/24 00:04:24;;;;;;;7.03;2.13;;;;;;;7.64;100.00;100679.56;5193255;28;20039;-81
2021/05/24 00:06:54;;;;;;;5.07;2.03;;;;;;;7.53;100.00;100680.69;5197924;28;20055;-81
2021/05/24 00:09:24;;;;;;;4.53;2.10;;;;;;;7.48;100.00;100670.38;5217136;28;20049;-81
2021/05/24 00:11:55;;;;;;;7.60;2.10;;;;;;;7.47;100.00;100676.47;5213252;28;20029;-82
2021/05/24 00:14:28;;;;;;;5.05;2.20;;;;;;;7.71;100.00;100675.94;5198541;28;20104;-79
2021/05/24 00:16:58;;;;;;;5.88;1.70;;;;;;;7.91;100.00;100678.91;5221369;28;20029;-81
2021/05/24 00:19:28;;;;;;;10.07;2.40;;;;;;;7.65;100.00;100672.59;5198663;28;20036;-81
2021/05/24 00:21:59;;;;;;;6.72;2.30;;;;;;;7.69;100.00;100664.69;5212938;28;20068;-81
2021/05/24 00:24:29;;;;;;;6.63;2.33;;;;;;;7.66;100.00;100661.34;5207130;28;20491;-81
2021/05/24 00:26:59;;;;;;;10.00;2.50;;;;;;;7.71;100.00;100662.91;5216568;28;20119;-81
2021/05/24 00:29:30;;;;;;;9.93;2.30;;;;;;;7.67;100.00;100663.03;5217230;28;20021;-80
2021/05/24 00:32:01;;;;;;;6.95;2.30;;;;;;;7.58;100.00;100658.91;5203616;28;20502;-80
2021/05/24 00:34:31;;;;;;;7.65;2.30;;;;;;;7.68;100.00;100657.78;5219753;28;20081;-80
2021/05/24 00:37:02;;;;;;;6.25;2.38;;;;;;;7.58;100.00;100653.69;5198918;28;20108;-80
2021/05/24 00:39:32;;;;;;;6.35;1.98;;;;;;;7.63;100.00;100657.06;5213556;28;20029;-81
2021/05/24 00:42:03;;;;;;;6.25;1.90;;;;;;;7.82;100.00;100649.66;5197372;28;20647;-81
2021/05/24 00:44:33;;;;;;;7.45;2.03;;;;;;;7.74;100.00;100649.00;5216639;28;20410;-81
2021/05/24 00:47:09;;;;;;;6.13;2.20;;;;;;;7.57;100.00;100653.72;5193650;28;20020;-80
2021/05/24 00:49:44;;;;;;;7.75;2.30;;;;;;;7.62;100.00;100647.53;5193164;28;20025;-81
2021/05/24 00:52:14;;;;;;;6.07;2.47;;;;;;;7.61;100.00;100642.34;5209042;28;20029;-80
2021/05/24 00:54:45;;;;;;;4.30;2.15;;;;;;;7.67;100.00;100642.25;5215973;28;20402;-81
2021/05/24 00:57:17;;;;;;;6.07;2.45;;;;;;;7.66;100.00;100630.97;5198926;28;20032;-80
2021/05/24 00:59:47;;;;;;;4.68;2.38;;;;;;;7.68;100.00;100634.38;5197078;28;20025;-80
2021/05/24 01:02:18;;;;;;;8.50;2.45;;;;;;;7.54;100.00;100635.59;5220316;28;20116;-81
2021/05/24 01:04:48;;;;;;;6.50;2.30;;;;;;;7.62;100.00;100629.34;5219695;28;20502;-81
2021/05/24 01:07:18;;;;;;;4.75;2.28;;;;;;;7.54;100.00;100636.44;5196964;28;20037;-81
2021/05/24 01:09:48;;;;;;;5.57;2.38;;;;;;;7.60;100.00;100636.31;5216704;28;20025;-81
2021/05/24 01:12:19;;;;;;;5.82;2.30;;;;;;;7.49;100.00;100630.50;5216096;28;20037;-81
2021/05/24 01:14:49;;;;;;;5.97;2.38;;;;;;;7.43;100.00;100625.44;5198523;28;20021;-81
2021/05/24 01:17:21;;;;;;;4.65;2.25;;;;;;;7.48;100.00;100626.19;5209830;28;20144;-80
2021/05/24 01:19:51;;;;;;;5.78;2.42;;;;;;;7.55;100.00;100622.53;5216213;28;20080;-81
2021/05/24 01:22:23;;;;;;;7.90;2.38;;;;;;;7.60;100.00;100615.50;5199707;28;20394;-81
2021/05/24 01:24:53;;;;;;;7.38;2.35;;;;;;;7.61;100.00;100617.22;5201717;28;20027;-81
2021/05/24 01:27:23;;;;;;;3.90;2.30;;;;;;;7.58;100.00;100622.50;5213116;28;20104;-81
2021/05/24 01:29:53;;;;;;;5.97;2.47;;;;;;;7.55;100.00;100611.31;5211904;28;20031;-81
2021/05/24 01:32:24;;;;;;;5.35;2.20;;;;;;;7.56;100.00;100621.66;5195246;28;20506;-81
2021/05/24 01:34:55;;;;;;;5.82;2.28;;;;;;;7.57;100.00;100615.59;5196555;28;20024;-81
2021/05/24 01:37:25;;;;;;;6.22;2.40;;;;;;;7.45;100.00;100610.66;5216305;28;20113;-81
2021/05/24 01:39:59;;;;;;;5.05;2.10;;;;;;;7.58;100.00;100614.69;5208239;28;20112;-81
2021/05/24 01:42:29;;;;;;;6.28;2.28;;;;;;;7.53;100.00;100600.91;5210448;28;20025;-81
2021/05/24 01:44:59;;;;;;;3.78;2.05;;;;;;;7.38;100.00;100609.06;5201320;28;20585;-80
2021/05/24 01:47:31;;;;;;;5.30;2.00;;;;;;;7.43;100.00;100609.84;5199252;28;20025;-80
2021/05/24 01:50:03;;;;;;;4.57;1.95;;;;;;;7.56;100.00;100598.25;5199206;28;20120;-81
2021/05/24 01:52:33;;;;;;;4.95;2.30;;;;;;;7.53;100.00;100597.47;5201143;28;20097;-80
2021/05/24 01:55:04;;;;;;;3.92;2.20;;;;;;;7.47;100.00;100598.47;5207520;22;722957;-81
2021/05/24 01:57:35;;;;;;;8.88;2.20;;;;;;;7.45;100.00;100600.25;5222658;28;20027;-81
2021/05/24 02:00:10;;;;;;;6.72;2.10;;;;;;;7.44;100.00;100603.75;5230883;28;20048;-82
2021/05/24 02:02:42;;;;;;;4.60;2.08;;;;;;;7.63;100.00;100594.63;5235087;28;20510;-80
2021/05/24 02:05:15;;;;;;;4.35;2.15;;;;;;;7.46;100.00;100604.56;5224419;28;20086;-79
2021/05/24 02:07:47;;;;;;;6.78;2.30;;;;;;;7.44;100.00;100603.75;5245854;28;20584;-81
2021/05/24 02:10:26;;;;;;;4.45;2.08;;;;;;;7.34;100.00;100604.81;5249512;28;20065;-79
2021/05/24 02:12:57;;;;;;;6.43;2.30;;;;;;;7.45;100.00;100599.38;5229100;28;20652;-80
2021/05/24 02:15:34;;;;;;;6.25;2.30;;;;;;;7.30;100.00;100590.19;5234451;28;20047;-78
2021/05/24 02:18:05;;;;;;;5.32;2.30;;;;;;;7.40;100.00;100590.84;5226735;28;20033;-82
2021/05/24 02:20:36;;;;;;;6.40;2.42;;;;;;;7.38;100.00;100575.28;5251191;28;20045;-78
2021/05/24 02:23:08;;;;;;;4.65;2.15;;;;;;;7.44;100.00;100576.88;5227034;28;20028;-78
2021/05/24 02:25:39;;;;;;;6.18;1.98;;;;;;;7.54;100.00;100584.44;5245451;28;20025;-79
2021/05/24 02:28:09;;;;;;;5.82;2.25;;;;;;;7.36;100.00;100592.66;5231545;28;20614;-80
2021/05/24 02:30:40;;;;;;;6.97;2.45;;;;;;;7.43;100.00;100595.97;5229533;28;20028;-82
2021/05/24 02:33:11;;;;;;;6.68;2.00;;;;;;;7.60;100.00;100592.09;5222927;28;20028;-81
2021/05/24 02:35:41;;;;;;;6.88;2.20;;;;;;;7.44;100.00;100588.16;5229468;28;20043;-80
2021/05/24 02:38:12;;;;;;;9.50;2.20;;;;;;;7.41;100.00;100596.03;5229578;28;20032;-79
2021/05/24 02:40:42;;;;;;;6.70;2.10;;;;;;;7.56;100.00;100594.81;5229638;28;20044;-79
2021/05/24 02:43:13;;;;;;;5.53;2.20;;;;;;;7.50;100.00;100597.56;5230040;28;20032;-79
2021/05/24 02:45:45;;;;;;;8.13;2.08;;;;;;;7.50;100.00;100590.59;5231529;28;20079;-81
2021/05/24 02:48:15;;;;;;;6.68;2.22;;;;;;;7.45;100.00;100589.84;5231288;28;20039;-80
2021/05/24 02:50:46;;;;;;;7.38;2.20;;;;;;;7.41;100.00;100596.03;5232016;28;20092;-79
2021/05/24 02:53:16;;;;;;;3.42;1.80;;;;;;;7.33;100.00;100589.28;5225571;28;20104;-80
2021/05/24 02:55:46;;;;;;;4.95;2.10;;;;;;;7.33;100.00;100584.91;5228479;28;20025;-80
2021/05/24 02:58:17;;;;;;;5.80;2.10;;;;;;;7.40;100.00;100583.91;5246897;28;20032;-78
2021/05/24 03:00:47;;;;;;;5.45;2.47;;;;;;;7.32;100.00;100585.81;5230403;28;20017;-80
2021/05/24 03:03:21;;;;;;;4.55;2.30;;;;;;;7.38;100.00;100588.25;5223352;28;20469;-79
2021/05/24 03:05:51;;;;;;;5.93;2.28;;;;;;;7.37;100.00;100591.75;5248549;28;20035;-80
2021/05/24 03:08:22;;;;;;;4.40;2.20;;;;;;;7.44;100.00;100589.88;5229086;28;20060;-81
2021/05/24 03:10:52;;;;;;;6.93;2.17;;;;;;;7.45;100.00;100589.84;5248532;28;20486;-80
2021/05/24 03:13:25;;;;;;;5.78;1.90;;;;;;;7.46;100.00;100583.75;5228726;28;20025;-80
2021/05/24 03:15:56;;;;;;;4.18;1.90;;;;;;;7.45;100.00;100584.66;5230487;28;20558;-79
2021/05/24 03:18:26;;;;;;;4.72;2.08;;;;;;;7.40;100.00;100580.44;5227827;28;20045;-80
2021/05/24 03:20:56;;;;;;;5.90;2.42;;;;;;;7.29;100.00;100578.09;5230466;28;20024;-80
2021/05/24 03:23:27;;;;;;;4.97;2.17;;;;;;;7.32;100.00;100580.63;5221491;28;20091;-80
2021/05/24 03:25:57;;;;;;;4.65;1.95;;;;;;;7.38;100.00;100572.66;5244437;28;20021;-78
2021/05/24 03:28:27;;;;;;;3.38;1.88;;;;;;;7.41;100.00;100572.63;5225310;28;20033;-79
2021/05/24 03:30:58;;;;;;;5.93;2.00;;;;;;;7.36;100.00;100564.06;5226235;28;20039;-81
2021/05/24 03:33:28;;;;;;;6.13;2.17;;;;;;;7.48;100.00;100568.09;5220380;28;20027;-82
2021/05/24 03:35:58;;;;;;;8.95;2.30;;;;;;;7.36;100.00;100569.25;5230051;28;20196;-80
2021/05/24 03:38:28;;;;;;;4.88;2.25;;;;;;;7.32;100.00;100565.03;5224962;28;20027;-81
2021/05/24 03:40:59;;;;;;;6.85;2.50;;;;;;;7.42;100.00;100563.94;5228329;28;20025;-81
2021/05/24 03:43:31;;;;;;;6.03;2.30;;;;;;;7.38;100.00;100559.66;5224667;28;20024;-80
2021/05/24 03:46:01;;;;;;;6.32;2.25;;;;;;;7.49;100.00;100564.66;5218211;28;20055;-79
2021/05/24 03:48:31;;;;;;;4.45;2.00;;;;;;;7.64;100.00;100556.47;5226903;28;20025;-79
2021/05/24 03:51:03;;;;;;;4.95;2.20;;;;;;;7.71;100.00;100556.28;5239331;28;20036;-78
2021/05/24 03:53:34;;;;;;;5.82;2.03;;;;;;;7.86;100.00;100561.09;5220788;28;20017;-81
2021/05/24 03:56:04;;;;;;;7.68;2.28;;;;;;;7.88;100.00;100548.91;5239979;28;20474;-81
2021/05/24 03:58:34;;;;;;;3.30;1.60;;;;;;;7.87;100.00;100546.38;5238082;28;20028;-78
2021/05/24 04:01:05;;;;;;;3.97;1.90;;;;;;;7.95;100.00;100539.22;5239343;28;20039;-80
2021/05/24 04:03:35;;;;;;;3.83;1.80;;;;;;;8.15;100.00;100543.00;5230818;28;20029;-81
2021/05/24 04:06:07;;;;;;;3.55;1.85;;;;;;;8.20;100.00;100543.75;5219468;28;20032;-81
2021/05/24 04:08:42;;;;;;;4.30;1.67;;;;;;;8.34;100.00;100549.47;5218270;28;20107;-81
2021/05/24 04:11:13;;;;;;;6.20;1.90;;;;;;;8.43;100.00;100541.41;5214780;28;20029;-81
2021/05/24 04:13:51;;;;;;;4.65;1.75;;;;;;;8.64;100.00;100546.03;5219744;28;20543;-81
2021/05/24 04:16:22;;;;;;;3.90;1.60;;;;;;;9.01;100.00;100549.28;5215430;28;20402;-82
2021/05/24 04:18:53;;;;;;;3.25;1.45;;;;;;;9.42;100.00;100551.47;5236382;28;20659;-81
2021/05/24 04:21:23;;;;;;;4.32;1.50;;;;;;;9.70;98.35;100539.25;5237366;28;20029;-81
2021/05/24 04:23:53;;;;;;;4.13;1.50;;;;;;;10.32;96.75;100541.47;5214614;28;20031;-81
2021/05/24 04:26:24;;;;;;;4.35;1.48;;;;;;;11.57;91.83;100533.19;5231902;28;20440;-81
2021/05/24 04:28:54;;;;;;;4.65;1.20;;;;;;;13.51;83.40;100539.34;5214682;28;20113;-82
2021/05/24 04:31:24;;;;;;;2.50;1.15;;;;;;;13.87;81.54;100537.53;5215319;28;20052;-81
2021/05/24 04:33:55;;;;;;;4.47;1.10;;;;;;;14.76;77.34;100531.16;5233000;28;20025;-82
2021/05/24 04:36:25;;;;;;;1.67;0.90;;;;;;;15.85;73.83;100530.25;5218617;28;20025;-82
2021/05/24 04:38:55;;;;;;;1.75;0.80;;;;;;;16.67;71.03;100523.56;5215578;28;20079;-81
2021/05/24 04:41:26;;;;;;;3.53;1.10;;;;;;;17.36;68.19;100530.63;5236869;28;20074;-83
2021/05/24 04:44:08;;;;;;;2.97;0.90;;;;;;;17.28;67.99;100532.88;5234099;28;20336;-82
2021/05/24 04:46:38;;;;;;;3.10;0.88;;;;;;;17.96;68.45;100535.41;5234193;28;20027;-83
2021/05/24 04:49:09;;;;;;;3.80;1.00;;;;;;;18.00;65.90;100531.59;5238025;28;20020;-83
2021/05/24 04:51:39;;;;;;;1.95;0.73;;;;;;;18.48;64.71;100525.69;5218097;28;20028;-83
2021/05/24 04:54:10;;;;;;;5.13;1.02;;;;;;;18.07;65.19;100518.81;5232918;28;20514;-83
2021/05/24 04:56:40;;;;;;;4.88;1.05;;;;;;;19.41;62.30;100514.56;5237802;28;20047;-83
2021/05/24 04:59:11;;;;;;;4.97;1.00;;;;;;;18.21;66.26;100535.44;5218688;28;20475;-83
2021/05/24 05:01:41;;;;;;;3.25;0.93;;;;;;;19.29;62.33;100525.19;5216712;28;20287;-81
2021/05/24 05:04:11;;;;;;;2.38;0.80;;;;;;;19.38;63.19;100530.69;5214488;28;20391;-81
2021/05/24 05:06:42;;;;;;;1.70;0.80;;;;;;;19.80;62.08;100519.56;5222123;28;20063;-81
2021/05/24 05:09:12;;;;;;;3.00;0.85;;;;;;;20.44;59.72;100519.09;5224003;28;20292;-79
2021/05/24 05:11:43;;;;;;;2.53;0.80;;;;;;;18.93;64.03;100517.19;5220919;28;20040;-80
2021/05/24 05:14:13;;;;;;;3.17;0.90;;;;;;;20.33;60.12;100507.63;5240675;28;20350;-81
2021/05/24 05:16:43;;;;;;;2.67;0.80;;;;;;;20.44;59.88;100513.78;5218506;28;20045;-81
2021/05/24 05:19:16;;;;;;;4.13;0.93;;;;;;;19.80;61.59;100514.28;5240966;28;20028;-80
2021/05/24 05:21:47;;;;;;;4.20;0.95;;;;;;;19.80;61.42;100505.47;5241206;28;20271;-81
2021/05/24 05:24:18;;;;;;;4.60;1.02;;;;;;;20.62;58.84;100507.06;5219137;28;20021;-81
2021/05/24 05:26:48;;;;;;;1.98;0.80;;;;;;;21.19;57.88;100503.34;5236248;28;20024;-81
2021/05/24 05:29:18;;;;;;;4.20;1.00;;;;;;;21.10;58.31;100500.56;5223418;28;20051;-80
2021/05/24 05:31:49;;;;;;;2.17;0.73;;;;;;;20.61;59.78;100505.38;5223410;28;20025;-81
2021/05/24 05:34:19;;;;;;;3.38;0.80;;;;;;;20.49;60.48;100501.00;5217063;28;20275;-80
2021/05/24 05:36:49;;;;;;;3.10;1.00;;;;;;;21.07;59.42;100500.81;5224220;28;20036;-79
2021/05/24 05:39:20;;;;;;;2.20;0.75;;;;;;;21.47;57.45;100496.63;5221750;28;20411;-81
2021/05/24 05:41:50;;;;;;;4.88;0.77;;;;;;;19.99;60.19;100501.31;5223146;28;20089;-82
2021/05/24 05:44:20;;;;;;;3.80;1.10;;;;;;;20.18;60.72;100498.16;5221523;28;20568;-82
2021/05/24 05:46:51;;;;;;;3.75;0.98;;;;;;;19.87;62.43;100502.25;5243174;28;20025;-81
2021/05/24 05:49:21;;;;;;;4.80;0.90;;;;;;;19.09;63.80;100500.09;5222271;28;20031;-79
2021/05/24 05:51:52;;;;;;;1.55;0.70;;;;;;;19.36;64.29;100498.16;5234258;28;20358;-79
2021/05/24 05:54:22;;;;;;;2.55;0.80;;;;;;;19.48;63.12;100497.22;5219913;28;20028;-79
2021/05/24 05:56:52;;;;;;;4.20;1.00;;;;;;;19.24;63.81;100493.72;5222642;28;20028;-80
2021/05/24 05:59:23;;;;;;;3.78;0.90;;;;;;;18.69;64.70;100487.13;5239975;28;20546;-80
2021/05/24 06:01:53;;;;;;;3.90;0.80;;;;;;;17.62;68.05;100500.72;5221560;28;20039;-80
2021/05/24 06:04:23;;;;;;;2.13;0.90;;;;;;;17.54;68.62;100501.22;5219402;28;20025;-80
2021/05/24 06:06:53;;;;;;;3.85;0.95;;;;;;;17.39;69.50;100499.56;5224270;28;20501;-80
2021/05/24 06:09:24;;;;;;;3.50;0.75;;;;;;;17.48;69.84;100498.13;5220827;28;20024;-80
2021/05/24 06:11:54;;;;;;;2.65;0.80;;;;;;;17.65;69.77;100500.53;5238541;28;20035;-79
2021/05/24 06:14:24;;;;;;;3.70;0.90;;;;;;;18.40;70.10;100490.97;5223321;28;20060;-79
2021/05/24 06:16:54;;;;;;;2.47;0.73;;;;;;;18.59;68.21;100480.78;5220069;28;20020;-79
2021/05/24 06:19:25;;;;;;;2.75;0.70;;;;;;;18.60;70.06;100476.31;5241242;28;20078;-80
2021/05/24 06:21:55;;;;;;;2.88;0.90;;;;;;;18.30;70.73;100478.44;5221456;28;20027;-79
2021/05/24 06:24:26;;;;;;;2.13;0.88;;;;;;;18.24;69.73;100489.41;5234083;28;20029;-78
2021/05/24 06:26:56;;;;;;;3.42;0.80;;;;;;;18.60;68.21;100473.69;5241085;28;20039;-80
2021/05/24 06:29:26;;;;;;;3.08;0.88;;;;;;;18.62;68.75;100474.41;5238098;28;20074;-80
2021/05/24 06:31:57;;;;;;;2.85;0.90;;;;;;;18.30;69.77;100473.16;5220060;28;20111;-78
2021/05/24 06:34:27;;;;;;;2.55;0.80;;;;;;;18.21;69.49;100473.75;5217759;28;20386;-78
2021/05/24 06:36:57;;;;;;;3.92;0.90;;;;;;;18.53;68.46;100475.91;5241290;28;20033;-79
2021/05/24 06:39:28;;;;;;;2.58;0.55;;;;;;;18.51;68.51;100474.34;5218433;28;20029;-79
2021/05/24 06:41:58;;;;;;;3.05;0.85;;;;;;;18.71;67.54;100471.13;5207450;28;20025;-80
2021/05/24 06:44:28;;;;;;;3.90;0.70;;;;;;;19.17;66.85;100473.94;5215977;28;20525;-80
2021/05/24 06:46:59;;;;;;;3.47;0.80;;;;;;;19.46;67.36;100475.28;5217957;28;20029;-80
2021/05/24 06:49:29;;;;;;;2.90;0.80;;;;;;;19.30;65.48;100469.41;5236336;28;20075;-80
2021/05/24 06:52:00;;;;;;;3.80;0.80;;;;;;;19.53;66.65;100462.44;5235206;28;20032;-78
2021/05/24 06:54:31;;;;;;;3.45;0.82;;;;;;;19.49;66.74;100448.56;5232703;28;20048;-80
2021/05/24 06:57:04;;;;;;;3.50;0.77;;;;;;;19.92;64.76;100447.03;5220447;28;20036;-78
2021/05/24 06:59:38;;;;;;;5.22;0.73;;;;;;;20.44;64.46;100449.22;5218782;28;20035;-79
2021/05/24 07:02:09;;;;;;;3.50;0.80;;;;;;;20.12;61.88;100454.34;5233899;28;20033;-80
2021/05/24 07:04:40;;;;;;;1.58;0.60;;;;;;;21.29;60.13;100448.47;5219492;28;20032;-79
2021/05/24 07:07:10;;;;;;;2.27;0.67;;;;;;;21.08;61.49;100446.69;5227296;28;20616;-79
2021/05/24 07:09:41;;;;;;;3.45;0.80;;;;;;;20.70;62.62;100452.38;5218793;28;20264;-80
2021/05/24 07:12:11;;;;;;;4.77;0.70;;;;;;;21.04;62.00;100455.88;5227435;28;20052;-80
2021/05/24 07:14:45;;;;;;;2.38;0.73;;;;;;;22.72;60.75;100447.72;5231534;28;20950;-80
2021/05/24 07:17:15;;;;;;;2.78;0.80;;;;;;;22.52;59.74;100451.28;5219795;28;20045;-81
2021/05/24 07:19:46;;;;;;;3.10;0.77;;;;;;;22.35;59.39;100433.19;5240202;28;20091;-81
2021/05/24 07:22:16;;;;;;;3.88;0.70;;;;;;;21.48;59.46;100445.13;5239154;28;20297;-79
2021/05/24 07:24:46;;;;;;;2.33;0.57;;;;;;;21.07;60.55;100443.19;5234845;28;20029;-78
2021/05/24 07:27:17;;;;;;;2.33;0.70;;;;;;;21.84;60.42;100427.00;5222214;28;20033;-79
2021/05/24 07:29:47;;;;;;;3.38;0.70;;;;;;;21.81;57.84;100423.72;5220575;28;20397;-79
2021/05/24 07:32:17;;;;;;;2.83;0.75;;;;;;;21.71;59.26;100422.84;5235699;28;20111;-80
2021/05/24 07:34:48;;;;;;;3.10;0.70;;;;;;;21.82;57.93;100412.97;5220924;28;20044;-81
2021/05/24 07:37:18;;;;;;;2.67;0.82;;;;;;;22.56;58.74;100415.38;5220661;28;20107;-80
2021/05/24 07:39:49;;;;;;;1.52;0.60;;;;;;;22.21;58.04;100401.59;5222669;28;20051;-80
2021/05/24 07:42:19;;;;;;;2.05;0.60;;;;;;;22.24;58.84;100408.47;5238582;28;20025;-79
2021/05/24 07:44:49;;;;;;;3.90;0.70;;;;;;;23.36;57.58;100401.03;5234616;28;20060;-78
2021/05/24 07:47:20;;;;;;;3.03;0.73;;;;;;;22.65;60.55;100400.41;5232285;28;20037;-80
2021/05/24 07:49:50;;;;;;;3.97;0.90;;;;;;;22.43;58.35;100393.44;5220078;28;20383;-79
2021/05/24 07:52:21;;;;;;;2.55;0.68;;;;;;;23.00;57.52;100391.00;5237263;28;20036;-78
2021/05/24 07:54:51;;;;;;;3.83;0.65;;;;;;;24.28;54.23;100386.06;5215477;28;20024;-80
2021/05/24 07:57:21;;;;;;;4.00;0.50;;;;;;;24.36;54.74;100380.81;5233801;28;20093;-79
2021/05/24 07:59:52;;;;;;;2.30;0.67;;;;;;;24.06;54.40;100375.69;5220248;28;20028;-78
2021/05/24 08:02:22;;;;;;;1.48;0.47;;;;;;;24.16;52.47;100373.84;5216299;28;20388;-80
2021/05/24 08:04:53;;;;;;;3.30;0.73;;;;;;;24.73;51.94;100373.63;5220318;28;20046;-81
2021/05/24 08:07:23;;;;;;;1.40;0.50;;;;;;;25.30;50.30;100371.47;5237265;28;20518;-80
2021/05/24 08:09:53;;;;;;;3.60;0.70;;;;;;;24.81;51.72;100379.09;5240578;28;20270;-79
2021/05/24 08:12:24;;;;;;;2.57;0.60;;;;;;;24.49;54.26;100388.50;5248644;28;20036;-78
2021/05/24 08:14:54;;;;;;;2.07;0.50;;;;;;;25.28;54.81;100375.31;5230919;28;20013;-78
2021/05/24 08:17:24;;;;;;;2.80;0.60;;;;;;;24.63;53.56;100378.22;5252521;28;20298;-79
2021/05/24 08:19:54;;;;;;;3.23;0.90;;;;;;;25.53;50.26;100378.06;5232134;28;20269;-79
2021/05/24 08:22:25;;;;;;;6.20;0.70;;;;;;;26.10;49.22;100365.94;5232665;28;20028;-78
2021/05/24 08:24:55;;;;;;;2.03;0.60;;;;;;;26.29;48.14;100360.34;5230517;28;20275;-77
2021/05/24 08:27:25;;;;;;;2.10;0.50;;;;;;;26.28;48.50;100353.31;5230145;28;20299;-79
2021/05/24 08:29:55;;;;;;;1.38;0.40;;;;;;;26.85;49.99;100343.56;5226565;28;20330;-78
2021/05/24 08:32:28;;;;;;;1.88;0.60;;;;;;;27.15;44.96;100334.94;5221254;28;20021;-78
2021/05/24 08:34:58;;;;;;;1.65;0.50;;;;;;;28.04;47.39;100333.94;5241375;28;20024;-78
2021/05/24 08:37:28;;;;;;;3.00;0.60;;;;;;;26.97;45.95;100336.84;5228425;28;20116;-78
2021/05/24 08:39:59;;;;;;;2.92;0.60;;;;;;;26.47;47.20;100332.47;5243459;28;20084;-79
2021/05/24 08:42:32;;;;;;;1.90;0.55;;;;;;;25.91;48.68;100340.22;5234823;28;20046;-78
2021/05/24 08:45:04;;;;;;;6.88;0.52;;;;;;;24.86;51.83;100339.38;5222933;28;20037;-78
2021/05/24 08:47:35;;;;;;;1.23;0.50;;;;;;;25.51;47.72;100333.69;5220509;28;20023;-79
2021/05/24 08:50:06;;;;;;;1.95;0.65;;;;;;;25.52;45.88;100324.66;5241276;28;20090;-79
2021/05/24 08:52:37;;;;;;;3.10;0.50;;;;;;;25.79;50.24;100309.28;5238923;28;20056;-79
2021/05/24 08:55:10;;;;;;;1.30;0.60;;;;;;;27.84;48.01;100304.91;5236555;28;20054;-77
2021/05/24 08:57:41;;;;;;;1.88;0.50;;;;;;;26.23;47.32;100308.25;5219665;28;20521;-78
2021/05/24 09:00:15;;;;;;;2.63;0.50;;;;;;;25.17;46.32;100306.75;5240474;28;20028;-78
2021/05/24 09:02:54;;;;;;;2.28;0.40;;;;;;;27.50;43.59;100294.34;5231011;28;20025;-80
2021/05/24 09:05:31;;;;;;;2.22;0.52;;;;;;;27.85;46.02;100291.31;5216188;28;20533;-80
2021/05/24 09:08:04;;;;;;;2.92;0.55;;;;;;;26.98;47.74;100286.72;5235213;28;20125;-80
2021/05/24 09:10:35;;;;;;;1.90;0.47;;;;;;;26.65;45.38;100286.84;5219153;28;20027;-78
2021/05/24 09:13:10;;;;;;;3.50;0.73;;;;;;;27.00;45.24;100282.03;5218565;28;20036;-78
2021/05/24 09:15:42;;;;;;;1.98;0.52;;;;;;;25.10;47.11;100288.78;5232773;28;20021;-79
2021/05/24 09:18:15;;;;;;;2.72;0.60;;;;;;;25.38;47.37;100293.09;5240327;28;20052;-78
2021/05/24 09:20:50;;;;;;;1.83;0.57;;;;;;;26.94;44.48;100280.84;5237106;28;20047;-78
2021/05/24 09:23:25;;;;;;;1.60;0.40;;;;;;;25.33;44.79;100282.00;5232786;28;20101;-78
2021/05/24 09:26:11;;;;;;;1.48;0.30;;;;;;;26.23;47.02;100272.56;5234076;28;20029;-79
2021/05/24 09:28:46;;;;;;;2.03;0.40;;;;;;;26.36;47.67;100279.16;5214247;28;20029;-78
2021/05/24 09:31:25;;;;;;;1.10;0.40;;;;;;;24.77;43.48;100278.78;5238728;28;20013;-79
2021/05/24 09:33:58;;;;;;;1.85;0.50;;;;;;;24.97;44.89;100269.63;5215234;28;20033;-77
2021/05/24 09:36:29;;;;;;;3.20;0.40;;;;;;;24.13;47.74;100269.13;5219054;28;20647;-79
2021/05/24 09:39:11;;;;;;;2.00;0.60;;;;;;;25.09;49.51;100265.69;5230457;28;20060;-78
2021/05/24 09:41:44;;;;;;;0.82;0.40;;;;;;;25.19;47.91;100275.38;5234062;28;20437;-78
2021/05/24 09:44:26;;;;;;;3.25;0.50;;;;;;;25.80;47.06;100257.41;5233626;28;20033;-79
2021/05/24 09:46:57;;;;;;;1.55;0.50;;;;;;;26.55;49.25;100262.00;5218373;28;20497;-79
2021/05/24 09:49:29;;;;;;;2.65;0.65;;;;;;;25.40;47.86;100246.44;5214218;28;20037;-79
2021/05/24 09:52:00;;;;;;;1.92;0.40;;;;;;;25.11;44.77;100245.84;5213702;28;20029;-78
2021/05/24 09:54:36;;;;;;;1.60;0.50;;;;;;;24.28;47.63;100241.78;5219074;28;20028;-79
2021/05/24 09:57:11;;;;;;;2.45;0.57;;;;;;;24.97;48.83;100241.03;5238633;28;20033;-79
2021/05/24 09:59:43;;;;;;;2.13;0.50;;;;;;;25.29;49.41;100232.47;5228858;28;20502;-80
2021/05/24 10:02:25;;;;;;;1.38;0.40;;;;;;;23.41;45.37;100239.56;5210877;28;20036;-81
2021/05/24 10:05:00;;;;;;;3.17;0.60;;;;;;;23.56;49.26;100222.06;5229823;28;20041;-80
2021/05/24 10:07:30;;;;;;;1.80;0.40;;;;;;;22.65;53.03;100228.06;5227264;28;20421;-79
2021/05/24 10:10:01;;;;;;;1.80;0.47;;;;;;;22.44;51.34;100224.63;5215654;28;20052;-80
2021/05/24 10:12:31;;;;;;;2.30;0.50;;;;;;;22.54;53.35;100224.66;5230971;28;20099;-79
2021/05/24 10:15:03;;;;;;;2.33;0.50;;;;;;;23.19;52.13;100223.84;5213434;28;20029;-80
2021/05/24 10:17:34;;;;;;;1.48;0.40;;;;;;;23.59;52.72;100216.47;5211766;28;20549;-80
2021/05/24 10:20:05;;;;;;;1.65;0.43;;;;;;;22.89;53.44;100221.34;5206107;28;20128;-79
2021/05/24 10:22:35;;;;;;;2.13;0.38;;;;;;;21.98;52.68;100220.84;5232070;28;20025;-79
2021/05/24 10:25:06;;;;;;;2.50;0.50;;;;;;;21.53;53.80;100230.13;5214438;28;20051;-79
2021/05/24 10:27:36;;;;;;;1.60;0.47;;;;;;;22.07;51.62;100206.75;5233371;28;20704;-80
2021/05/24 10:30:07;;;;;;;2.28;0.60;;;;;;;22.91;55.74;100198.03;5226165;28;20490;-79
2021/05/24 10:32:53;;;;;;;2.03;0.40;;;;;;;23.54;54.93;100204.56;5227051;28;20115;-80
2021/05/24 10:35:32;;;;;;;2.67;0.40;;;;;;;23.44;49.72;100190.38;5208265;28;20036;-79
2021/05/24 10:38:22;;;;;;;3.45;0.60;;;;;;;22.78;49.36;100197.47;5216170;28;20035;-80
2021/05/24 10:41:06;;;;;;;2.05;0.50;;;;;;;22.80;51.60;100192.84;5234203;28;20057;-79
2021/05/24 10:43:43;;;;;;;2.60;0.60;;;;;;;23.10;55.68;100184.69;5200027;28;20031;-79
2021/05/24 10:46:26;;;;;;;3.45;0.50;;;;;;;22.88;50.54;100187.63;5228942;28;20068;-79
2021/05/24 10:49:12;;;;;;;1.52;0.47;;;;;;;23.05;51.15;100181.59;5228292;28;20021;-79
2021/05/24 10:52:09;;;;;;;2.40;0.60;;;;;;;22.23;53.21;100172.44;5224151;28;20135;-78
2021/05/24 10:54:41;;;;;;;1.65;0.50;;;;;;;22.63;54.49;100165.22;5223344;28;20021;-79
2021/05/24 10:57:14;;;;;;;3.72;0.68;;;;;;;22.61;50.56;100167.19;5222309;28;20036;-79
2021/05/24 10:59:47;;;;;;;2.42;0.65;;;;;;;22.90;52.25;100160.84;5221609;28;20017;-79
2021/05/24 11:02:32;;;;;;;2.15;0.50;;;;;;;22.71;52.96;100159.03;5219665;28;20560;-78
2021/05/24 11:05:08;;;;;;;1.10;0.40;;;;;;;22.73;53.25;100162.44;5216195;28;20044;-79
2021/05/24 11:07:44;;;;;;;1.48;0.50;;;;;;;22.60;49.52;100155.66;5222178;28;20343;-79
2021/05/24 11:10:18;;;;;;;1.63;0.50;;;;;;;22.89;55.37;100152.03;5229340;28;20036;-79
2021/05/24 11:13:07;;;;;;;2.20;0.50;;;;;;;23.01;51.24;100137.53;5213936;28;20120;-80
2021/05/24 11:15:42;;;;;;;1.95;0.60;;;;;;;23.25;53.33;100132.63;5223425;28;20024;-80
2021/05/24 11:18:21;;;;;;;1.47;0.40;;;;;;;23.36;57.92;100139.59;5227191;28;20047;-80
2021/05/24 11:20:58;;;;;;;4.88;0.60;;;;;;;22.45;53.86;100137.59;5219437;28;20283;-78
2021/05/24 11:23:46;;;;;;;2.00;0.70;;;;;;;22.15;55.09;100135.00;5223296;28;20021;-79
2021/05/24 11:26:20;;;;;;;3.85;0.50;;;;;;;22.34;54.97;100125.22;5218447;28;20063;-80
2021/05/24 11:28:55;;;;;;;1.92;0.60;;;;;;;22.43;56.02;100128.91;5222548;28;20132;-79
2021/05/24 11:31:35;;;;;;;2.67;0.60;;;;;;;22.77;53.68;100123.84;5225477;28;20025;-79
2021/05/24 11:34:10;;;;;;;2.40;0.55;;;;;;;22.44;55.51;100119.94;5223269;28;20414;-79
2021/05/24 11:36:42;;;;;;;3.90;0.60;;;;;;;22.29;55.86;100119.44;5227172;28;20055;-80
2021/05/24 11:39:17;;;;;;;2.25;0.50;;;;;;;22.41;55.70;100117.56;5226679;28;20155;-80
2021/05/24 11:41:56;;;;;;;3.35;0.60;;;;;;;22.47;56.88;100109.84;5230014;28;20073;-79
2021/05/24 11:44:36;;;;;;;1.50;0.60;;;;;;;21.93;54.96;100108.63;5221367;28;20066;-79
2021/05/24 11:47:09;;;;;;;2.47;0.50;;;;;;;21.81;52.85;100091.09;5223150;28;20111;-79